Portada
METAR-TAF:

METAR-TAF

Aeroports :

Tôlanaro, Madagascar

latitud: 25-02S, longitud: 046-57E, altitud: 8 m

Observació

L'informe es va fer fa 45 minuts, a les 08:00 UTC
Vent 12 kt del Est/Sud-Est
Temperatura 21°C
Humitat 73%
Pressió 1024 hPa
Visibilitat 10 km o més
Escasses núvols a una alçada de 2000 ft

METAR: FMSD 020800Z 12012KT 9999 FEW020 21/16 Q1024

Hora: 11:45 (08:45 UTC)

Pronòstic

L'informe es va fer fa 3 hores i 45 minuts, a les 05:00 UTC
Pronòstic vàlid del 02 a les 06 UTC al 03 a les 06 UTC
Vent 10 kt del Est
Visibilitat 10 km o més
Núvols disperses a una alçada de 2000 ft
Probabilitat 30% :
Temporalment
l' 02 a les 09 UTC al 02 a les 15 UTC
Visibilitat: 4500 m
xàfecs de pluja

TAF: FMSD 020500Z 0206/0306 08010KT 9999 SCT020 PROB30 TEMPO 0209/0215 4500 SHRA

Observacions i pronòstics meteorològics de més de 4000 aeroports (METAR i TAF).

Les estacions disponibles són els punts grocs i vermells al mapa.

Posi el ratolí al punt desitjat per veure el nom de l'estació.

Feu clic per veure les observacions i els pronòstics meteorològics.

Per canviar el mapa: feu clic els botons verds amb una creu de color negre per apropar; al botó verd amb un guió per allunyar la imatge; o en les fletxes verdes per a mapes adjacents.


METAR-TAF: